createdAt,value
2018-08-25T00:00:24.368Z,6.97
2018-08-25T00:02:53.312Z,6.37
2018-08-25T00:05:21.366Z,6.47
2018-08-25T00:07:49.512Z,7.97
2018-08-25T00:10:17.638Z,9.13
2018-08-25T00:12:45.767Z,14.85
2018-08-25T00:15:13.843Z,18.73
2018-08-25T00:17:41.947Z,17.95
2018-08-25T00:20:10.021Z,18.02
2018-08-25T00:22:38.125Z,16.67
2018-08-25T00:25:06.289Z,14.80
2018-08-25T00:27:34.412Z,13.90
2018-08-25T00:30:02.492Z,14.07
2018-08-25T00:32:30.663Z,11.07
2018-08-25T00:34:58.813Z,9.07
2018-08-25T00:37:26.894Z,10.23
2018-08-25T00:39:54.979Z,9.00
2018-08-25T00:42:23.131Z,9.40
2018-08-25T00:44:51.297Z,7.30
2018-08-25T00:47:19.425Z,6.93
2018-08-25T00:49:47.570Z,7.73
2018-08-25T00:52:15.731Z,6.90
2018-08-25T00:54:43.851Z,7.93
2018-08-25T00:57:12.001Z,6.90
2018-08-25T00:59:40.107Z,6.00
2018-08-25T01:02:08.228Z,5.90
2018-08-25T01:04:36.389Z,6.30
2018-08-25T01:07:04.903Z,6.43
2018-08-25T01:09:33.014Z,6.10
2018-08-25T01:12:01.127Z,5.75
2018-08-25T01:14:29.271Z,6.50
2018-08-25T01:16:57.411Z,6.10
2018-08-25T01:19:25.556Z,6.42
2018-08-25T01:21:53.701Z,5.80
2018-08-25T01:24:21.830Z,6.33
2018-08-25T01:26:49.973Z,6.05
2018-08-25T01:29:18.077Z,5.33
2018-08-25T01:31:46.180Z,6.20
2018-08-25T01:34:14.288Z,5.10
2018-08-25T01:36:42.414Z,6.40
2018-08-25T01:39:10.568Z,5.13
2018-08-25T01:41:38.729Z,5.77
2018-08-25T01:44:06.872Z,5.57
2018-08-25T01:46:35.003Z,5.90
2018-08-25T01:49:03.289Z,6.03
2018-08-25T01:51:31.409Z,6.00
2018-08-25T01:53:59.837Z,5.50
2018-08-25T01:56:27.931Z,5.83
2018-08-25T01:58:56.032Z,6.17
2018-08-25T02:01:24.979Z,5.72
2018-08-25T02:03:53.108Z,5.83
2018-08-25T02:06:21.198Z,5.42
2018-08-25T02:08:49.385Z,5.15
2018-08-25T02:11:17.621Z,5.10
2018-08-25T02:13:46.125Z,5.10
2018-08-25T02:16:14.259Z,5.25
2018-08-25T02:18:42.398Z,4.77
2018-08-25T02:21:10.552Z,5.30
2018-08-25T02:23:38.691Z,5.40
2018-08-25T02:26:06.796Z,5.10
2018-08-25T02:28:34.905Z,4.80
2018-08-25T02:31:03.052Z,5.00
2018-08-25T02:33:31.228Z,5.50
2018-08-25T02:35:59.418Z,5.33
2018-08-25T02:38:27.523Z,5.03
2018-08-25T02:40:55.630Z,5.50
2018-08-25T02:43:23.720Z,5.67
2018-08-25T02:45:51.817Z,5.20
2018-08-25T02:48:19.980Z,5.40
2018-08-25T02:50:48.077Z,4.97
2018-08-25T02:53:16.176Z,5.60
2018-08-25T02:55:44.284Z,5.50
2018-08-25T02:58:12.384Z,6.00
2018-08-25T03:00:40.528Z,5.23
2018-08-25T03:08:03.390Z,5.17
2018-08-25T03:10:31.485Z,5.60
2018-08-25T03:12:59.610Z,4.83
2018-08-25T03:15:27.716Z,5.10
2018-08-25T03:17:55.795Z,5.83
2018-08-25T03:20:23.921Z,5.03
2018-08-25T03:22:52.288Z,5.10
2018-08-25T03:25:20.368Z,4.90
2018-08-25T03:27:48.553Z,4.50
2018-08-25T03:30:16.695Z,4.73
2018-08-25T03:32:44.817Z,4.33
2018-08-25T03:35:12.951Z,4.53
2018-08-25T03:37:41.154Z,4.53
2018-08-25T03:40:09.314Z,4.67
2018-08-25T03:42:37.444Z,4.70
2018-08-25T03:45:05.626Z,4.40
2018-08-25T03:47:33.793Z,4.93
2018-08-25T03:50:02.061Z,5.60
2018-08-25T03:52:30.228Z,5.20
2018-08-25T03:54:58.353Z,4.95
2018-08-25T03:57:26.497Z,4.70
2018-08-25T03:59:54.612Z,4.90
2018-08-25T04:02:22.734Z,4.92
2018-08-25T04:04:50.912Z,4.55
2018-08-25T04:07:19.200Z,4.85
2018-08-25T04:09:47.320Z,4.60
2018-08-25T04:12:15.459Z,5.22
2018-08-25T04:14:43.650Z,4.40
2018-08-25T04:17:11.793Z,4.55
2018-08-25T04:19:39.942Z,4.25
2018-08-25T04:22:08.100Z,4.62
2018-08-25T04:24:36.237Z,4.22
2018-08-25T04:27:04.425Z,5.17
2018-08-25T04:29:32.667Z,4.72
2018-08-25T04:32:00.781Z,4.73
2018-08-25T04:34:28.880Z,4.47
2018-08-25T04:36:57.130Z,4.23
2018-08-25T04:39:25.291Z,3.93
2018-08-25T04:41:53.488Z,3.73
2018-08-25T04:44:21.614Z,4.30
2018-08-25T04:46:49.758Z,4.43
2018-08-25T04:49:17.945Z,4.20
2018-08-25T04:51:46.045Z,4.10
2018-08-25T04:54:14.241Z,4.00
2018-08-25T04:56:42.380Z,3.97
2018-08-25T04:59:10.588Z,3.90
2018-08-25T05:01:38.754Z,3.97
2018-08-25T05:04:06.896Z,4.90
2018-08-25T05:06:35.100Z,4.13
2018-08-25T05:09:03.304Z,3.70
2018-08-25T05:11:31.482Z,3.95
2018-08-25T05:13:59.644Z,4.33
2018-08-25T05:16:27.810Z,3.20
2018-08-25T05:18:55.993Z,3.50
2018-08-25T05:21:24.138Z,3.63
2018-08-25T05:23:52.366Z,3.93
2018-08-25T05:26:20.610Z,3.70
2018-08-25T05:28:48.776Z,3.47
2018-08-25T05:31:16.966Z,3.50
2018-08-25T05:33:45.136Z,3.83
2018-08-25T05:36:13.298Z,3.63
2018-08-25T05:38:41.445Z,3.50
2018-08-25T05:41:09.776Z,3.07
2018-08-25T05:43:37.921Z,3.40
2018-08-25T05:46:07.125Z,3.60
2018-08-25T05:48:35.320Z,4.05
2018-08-25T05:51:04.385Z,3.15
2018-08-25T05:53:32.512Z,3.17
2018-08-25T05:56:00.673Z,3.40
2018-08-25T05:58:28.841Z,3.08
2018-08-25T06:00:57.044Z,2.95
2018-08-25T06:03:25.136Z,3.22
2018-08-25T06:05:53.323Z,2.40
2018-08-25T06:08:21.500Z,2.70
2018-08-25T06:10:49.679Z,2.50
2018-08-25T06:13:17.826Z,3.00
2018-08-25T06:15:45.964Z,2.27
2018-08-25T06:18:14.070Z,2.27
2018-08-25T06:20:42.201Z,3.00
2018-08-25T06:23:10.397Z,2.90
2018-08-25T06:25:38.567Z,2.50
2018-08-25T06:28:06.711Z,2.70
2018-08-25T06:30:34.851Z,3.10
2018-08-25T06:33:03.003Z,3.03
2018-08-25T06:35:31.179Z,3.00
2018-08-25T06:37:59.408Z,3.40
2018-08-25T06:40:27.524Z,2.83
2018-08-25T06:42:55.730Z,3.30
2018-08-25T06:45:23.875Z,3.03
2018-08-25T06:47:51.988Z,3.17
2018-08-25T06:50:20.140Z,3.70
2018-08-25T06:52:48.285Z,3.93
2018-08-25T06:55:16.541Z,3.60
2018-08-25T06:57:44.739Z,3.20
2018-08-25T07:00:12.862Z,3.10
2018-08-25T07:02:41.030Z,3.33
2018-08-25T07:05:09.155Z,2.83
2018-08-25T07:07:37.299Z,3.40
2018-08-25T07:10:05.478Z,3.27
2018-08-25T07:12:33.590Z,4.07
2018-08-25T07:15:01.760Z,3.00
2018-08-25T07:17:29.865Z,4.00
2018-08-25T07:19:58.041Z,3.93
2018-08-25T07:22:26.192Z,3.20
2018-08-25T07:24:54.388Z,3.33
2018-08-25T07:27:22.648Z,3.70
2018-08-25T07:29:50.822Z,2.77
2018-08-25T07:32:18.995Z,4.20
2018-08-25T07:34:47.149Z,3.97
2018-08-25T07:37:15.401Z,3.58
2018-08-25T07:39:43.590Z,3.87
2018-08-25T07:42:11.755Z,4.00
2018-08-25T07:44:39.934Z,3.50
2018-08-25T07:47:08.104Z,3.37
2018-08-25T07:49:36.403Z,4.70
2018-08-25T07:52:04.625Z,3.17
2018-08-25T07:54:33.376Z,3.00
2018-08-25T07:57:01.599Z,3.00
2018-08-25T07:59:29.817Z,3.10
2018-08-25T08:01:58.097Z,3.70
2018-08-25T08:04:26.281Z,2.60
2018-08-25T08:06:54.437Z,3.37
2018-08-25T08:09:22.629Z,2.87
2018-08-25T08:11:50.890Z,3.00
2018-08-25T08:14:19.018Z,3.00
2018-08-25T08:16:47.238Z,3.23
2018-08-25T08:19:15.380Z,3.33
2018-08-25T08:21:43.541Z,2.90
2018-08-25T08:24:11.753Z,2.98
2018-08-25T08:26:39.959Z,3.03
2018-08-25T08:29:08.186Z,3.60
2018-08-25T08:31:36.345Z,3.60
2018-08-25T08:34:04.552Z,7.00
2018-08-25T08:36:32.817Z,3.30
2018-08-25T08:39:00.998Z,4.40
2018-08-25T08:41:29.160Z,3.30
2018-08-25T08:43:57.329Z,4.13
2018-08-25T08:46:30.849Z,3.90
2018-08-25T08:48:59.137Z,5.30
2018-08-25T08:51:27.424Z,4.27
2018-08-25T08:53:55.546Z,5.30
2018-08-25T08:56:23.664Z,5.10
2018-08-25T08:58:51.845Z,5.30
2018-08-25T09:01:20.099Z,5.40
2018-08-25T09:03:48.321Z,5.50
2018-08-25T09:06:16.508Z,5.80
2018-08-25T09:08:44.688Z,5.00
2018-08-25T09:11:12.885Z,6.40
2018-08-25T09:13:41.045Z,5.80
2018-08-25T09:16:09.159Z,6.30
2018-08-25T09:18:37.362Z,5.47
2018-08-25T09:21:05.596Z,5.20
2018-08-25T09:23:33.790Z,6.33
2018-08-25T09:26:01.951Z,6.00
2018-08-25T09:28:30.119Z,5.42
2018-08-25T09:30:58.338Z,4.90
2018-08-25T09:33:26.501Z,5.90
2018-08-25T09:35:54.786Z,6.60
2018-08-25T09:38:22.826Z,5.87
2018-08-25T09:40:51.017Z,6.10
2018-08-25T09:43:20.264Z,6.23
2018-08-25T09:45:49.161Z,5.60
2018-08-25T09:48:17.317Z,5.80
2018-08-25T09:50:45.463Z,5.70
2018-08-25T09:53:13.630Z,5.85
2018-08-25T09:55:41.793Z,4.95
2018-08-25T09:58:10.043Z,5.55
2018-08-25T10:00:38.372Z,5.30
2018-08-25T10:03:07.786Z,5.15
2018-08-25T10:05:35.984Z,4.87
2018-08-25T10:08:04.187Z,4.20
2018-08-25T10:10:32.347Z,4.80
2018-08-25T10:13:00.477Z,4.43
2018-08-25T10:15:28.619Z,4.53
2018-08-25T10:17:56.760Z,3.83
2018-08-25T10:20:24.912Z,3.70
2018-08-25T10:22:53.138Z,4.37
2018-08-25T10:25:21.287Z,4.00
2018-08-25T10:27:49.481Z,4.25
2018-08-25T10:30:18.237Z,3.40
2018-08-25T10:32:46.406Z,4.20
2018-08-25T10:35:14.580Z,4.67
2018-08-25T10:37:42.782Z,3.30
2018-08-25T10:40:10.941Z,4.00
2018-08-25T10:42:39.100Z,3.40
2018-08-25T10:45:08.176Z,3.27
2018-08-25T10:47:36.355Z,3.40
2018-08-25T10:50:04.566Z,4.00
2018-08-25T10:52:32.758Z,2.97
2018-08-25T10:55:00.937Z,4.20
2018-08-25T10:57:29.057Z,3.40
2018-08-25T10:59:57.221Z,3.87
2018-08-25T11:02:27.302Z,3.43
2018-08-25T11:04:55.464Z,3.87
2018-08-25T11:07:24.287Z,4.33
2018-08-25T11:09:53.309Z,5.03
2018-08-25T11:12:21.863Z,5.00
2018-08-25T11:14:50.001Z,4.97
2018-08-25T11:17:18.201Z,4.67
2018-08-25T11:19:46.355Z,5.60
2018-08-25T11:22:14.528Z,5.50
2018-08-25T11:24:42.751Z,4.60
2018-08-25T11:27:10.977Z,5.20
2018-08-25T11:29:39.108Z,4.67
2018-08-25T11:32:07.313Z,4.90
2018-08-25T11:34:35.477Z,4.73
2018-08-25T11:37:04.248Z,4.70
2018-08-25T11:39:32.436Z,5.28
2018-08-25T11:42:00.543Z,6.00
2018-08-25T11:44:28.672Z,5.27
2018-08-25T11:46:56.789Z,5.12
2018-08-25T11:49:24.917Z,5.72
2018-08-25T11:51:53.093Z,7.55
2018-08-25T11:54:21.304Z,6.27
2018-08-25T11:56:49.453Z,3.80
2018-08-25T11:59:17.649Z,1.50
2018-08-25T12:01:46.178Z,1.90
2018-08-25T12:04:14.301Z,1.90
2018-08-25T12:06:42.585Z,2.20
2018-08-25T12:09:12.422Z,1.57
2018-08-25T12:11:40.733Z,1.57
2018-08-25T12:14:08.877Z,2.47
2018-08-25T12:16:37.086Z,2.20
2018-08-25T12:19:05.230Z,2.10
2018-08-25T12:21:33.347Z,1.90
2018-08-25T12:24:01.568Z,1.30
2018-08-25T12:26:29.673Z,1.37
2018-08-25T12:28:57.823Z,1.40
2018-08-25T12:31:26.097Z,1.30
2018-08-25T12:33:54.257Z,1.33
2018-08-25T12:36:22.457Z,0.93
2018-08-25T12:38:50.575Z,1.00
2018-08-25T12:41:19.055Z,0.90
2018-08-25T13:19:33.321Z,1.85
2018-08-25T13:22:01.547Z,2.10
2018-08-25T13:24:29.762Z,2.10
2018-08-25T13:26:57.947Z,1.97
2018-08-25T13:29:26.088Z,2.07
2018-08-25T13:31:54.261Z,2.10
2018-08-25T13:34:22.453Z,2.50
2018-08-25T13:36:50.615Z,3.20
2018-08-25T13:39:18.767Z,2.37
2018-08-25T13:41:46.953Z,3.10
2018-08-25T13:44:15.245Z,2.97
2018-08-25T13:46:43.751Z,3.20
2018-08-25T13:49:11.932Z,3.20
2018-08-25T13:51:40.147Z,3.00
2018-08-25T13:54:08.433Z,3.50
2018-08-25T13:56:36.568Z,3.57
2018-08-25T13:59:04.691Z,3.50
2018-08-25T14:01:32.843Z,3.23
2018-08-25T14:04:01.060Z,3.13
2018-08-25T14:06:29.206Z,4.30
2018-08-25T14:08:57.404Z,3.57
2018-08-25T14:11:25.717Z,3.73
2018-08-25T14:13:53.928Z,4.90
2018-08-25T14:16:22.127Z,4.30
2018-08-25T14:18:50.252Z,3.50
2018-08-25T14:21:18.397Z,3.93
2018-08-25T14:23:46.555Z,3.93
2018-08-25T14:26:25.698Z,4.00
2018-08-25T14:28:55.501Z,3.60
2018-08-25T14:31:23.634Z,3.42
2018-08-25T14:33:51.809Z,3.20
2018-08-25T14:36:20.059Z,3.30
2018-08-25T14:38:48.143Z,3.80
2018-08-25T14:41:16.265Z,3.40
2018-08-25T14:43:44.440Z,2.73
2018-08-25T14:46:12.729Z,2.63
2018-08-25T14:48:40.862Z,3.10
2018-08-25T14:51:08.994Z,3.10
2018-08-25T14:53:37.184Z,2.90
2018-08-25T14:56:05.432Z,3.07
2018-08-25T14:58:33.666Z,3.70
2018-08-25T15:01:01.827Z,3.73
2018-08-25T15:03:29.979Z,3.30
2018-08-25T15:05:58.119Z,3.25
2018-08-25T15:08:26.350Z,2.65
2018-08-25T15:10:54.525Z,3.27
2018-08-25T15:13:22.674Z,3.25
2018-08-25T15:15:50.928Z,3.10
2018-08-25T15:18:19.097Z,3.47
2018-08-25T15:20:47.538Z,3.10
2018-08-25T15:23:16.517Z,2.90
2018-08-25T15:25:44.716Z,2.70
2018-08-25T15:28:12.906Z,2.87
2018-08-25T15:30:41.041Z,3.13
2018-08-25T15:33:10.383Z,2.67
2018-08-25T15:35:38.554Z,2.60
2018-08-25T15:38:06.681Z,2.50
2018-08-25T15:40:34.810Z,2.40
2018-08-25T15:43:02.957Z,2.30
2018-08-25T15:45:31.105Z,2.50
2018-08-25T15:47:59.241Z,2.10
2018-08-25T15:50:27.484Z,2.13
2018-08-25T15:52:55.673Z,1.90
2018-08-25T15:55:23.809Z,1.37
2018-08-25T15:57:52.078Z,1.70
2018-08-25T16:00:20.093Z,1.70
2018-08-25T16:02:48.277Z,1.93
2018-08-25T16:05:16.440Z,1.50
2018-08-25T16:07:45.228Z,1.27
2018-08-25T16:10:13.352Z,1.23
2018-08-25T16:12:41.528Z,1.13
2018-08-25T16:15:09.696Z,1.27
2018-08-25T16:17:37.833Z,1.40
2018-08-25T16:20:06.119Z,1.30
2018-08-25T16:22:34.112Z,1.57
2018-08-25T16:25:02.304Z,1.87
2018-08-25T16:27:30.452Z,1.45
2018-08-25T16:29:58.577Z,1.50
2018-08-25T16:32:26.716Z,1.70
2018-08-25T16:34:54.898Z,1.90
2018-08-25T16:37:23.073Z,2.00
2018-08-25T16:39:51.273Z,1.60
2018-08-25T16:42:19.456Z,1.50
2018-08-25T16:44:47.628Z,1.30
2018-08-25T16:47:15.759Z,1.17
2018-08-25T16:49:43.917Z,1.62
2018-08-25T16:52:12.069Z,1.73
2018-08-25T16:54:40.231Z,1.37
2018-08-25T16:57:08.361Z,1.37
2018-08-25T16:59:36.524Z,1.73
2018-08-25T17:02:04.715Z,1.63
2018-08-25T17:04:32.849Z,2.00
2018-08-25T17:07:00.967Z,1.30
2018-08-25T17:09:29.116Z,1.70
2018-08-25T17:11:57.337Z,1.60
2018-08-25T17:14:25.424Z,1.50
2018-08-25T17:16:53.585Z,1.50
2018-08-25T17:19:21.704Z,1.23
2018-08-25T17:21:49.822Z,1.50
2018-08-25T17:24:17.976Z,1.40
2018-08-25T17:26:46.134Z,1.53
2018-08-25T17:29:14.301Z,1.20
2018-08-25T17:31:42.580Z,1.40
2018-08-25T17:34:10.774Z,1.80
2018-08-25T17:36:38.916Z,1.73
2018-08-25T17:39:09.823Z,1.30
2018-08-25T17:41:38.026Z,1.80
2018-08-25T17:44:06.200Z,1.50
2018-08-25T17:46:34.330Z,1.53
2018-08-25T17:49:02.490Z,1.90
2018-08-25T17:51:30.646Z,1.50
2018-08-25T17:53:58.804Z,1.30
2018-08-25T17:56:26.997Z,1.23
2018-08-25T17:58:55.164Z,1.50
2018-08-25T18:01:23.324Z,1.37
2018-08-25T18:03:51.592Z,1.53
2018-08-25T18:06:19.634Z,1.55
2018-08-25T18:08:47.768Z,1.40
2018-08-25T18:11:15.976Z,1.40
2018-08-25T18:13:44.075Z,1.53
2018-08-25T18:16:12.192Z,1.57
2018-08-25T18:18:40.324Z,1.95
2018-08-25T18:21:08.420Z,1.77
2018-08-25T18:23:36.572Z,1.90
2018-08-25T18:26:04.757Z,1.80
2018-08-25T18:28:32.877Z,1.52
2018-08-25T18:31:01.033Z,1.40
2018-08-25T18:33:29.154Z,2.10
2018-08-25T18:35:57.262Z,2.05
2018-08-25T18:38:25.417Z,2.07
2018-08-25T18:40:53.577Z,1.97
2018-08-25T18:43:21.692Z,2.37
2018-08-25T18:45:49.819Z,2.17
2018-08-25T18:48:18.018Z,2.00
2018-08-25T18:50:46.156Z,1.67
2018-08-25T18:53:14.466Z,2.27
2018-08-25T18:55:42.616Z,2.00
2018-08-25T18:58:10.776Z,2.13
2018-08-25T19:00:38.900Z,2.67
2018-08-25T19:03:07.347Z,2.33
2018-08-25T19:05:35.514Z,2.50
2018-08-25T19:08:03.669Z,2.40
2018-08-25T19:10:31.796Z,2.47
2018-08-25T19:13:00.038Z,2.07
2018-08-25T19:15:28.746Z,2.40
2018-08-25T19:17:56.904Z,2.33
2018-08-25T19:20:25.092Z,2.63
2018-08-25T19:22:53.259Z,2.30
2018-08-25T19:25:21.411Z,2.30
2018-08-25T19:27:49.616Z,2.13
2018-08-25T19:30:17.748Z,2.70
2018-08-25T19:32:45.908Z,2.67
2018-08-25T19:35:14.041Z,2.53
2018-08-25T19:37:42.205Z,2.40
2018-08-25T19:40:10.332Z,2.70
2018-08-25T19:42:38.512Z,2.58
2018-08-25T19:45:06.715Z,2.67
2018-08-25T19:47:34.892Z,3.33
2018-08-25T19:50:03.017Z,2.73
2018-08-25T19:52:31.260Z,2.40
2018-08-25T19:54:59.422Z,3.00
2018-08-25T19:57:27.520Z,2.47
2018-08-25T19:59:55.686Z,2.07
2018-08-25T20:02:23.843Z,2.20
2018-08-25T20:04:51.995Z,2.23
2018-08-25T20:07:20.139Z,2.80
2018-08-25T20:09:48.821Z,2.50
2018-08-25T20:12:16.954Z,3.42
2018-08-25T20:14:45.098Z,2.47
2018-08-25T20:17:13.260Z,2.37
2018-08-25T20:19:41.420Z,2.40
2018-08-25T20:22:10.204Z,2.60
2018-08-25T20:24:38.420Z,2.05
2018-08-25T20:27:06.574Z,2.40
2018-08-25T20:29:34.714Z,2.40
2018-08-25T20:32:02.889Z,2.53
2018-08-25T20:34:31.043Z,2.13
2018-08-25T20:36:59.284Z,2.10
2018-08-25T20:39:27.377Z,2.03
2018-08-25T20:41:55.528Z,1.93
2018-08-25T20:44:23.704Z,2.30
2018-08-25T20:46:51.843Z,2.37
2018-08-25T20:49:19.980Z,1.90
2018-08-25T20:51:48.137Z,2.10
2018-08-25T20:54:16.248Z,2.20
2018-08-25T20:56:44.365Z,2.70
2018-08-25T20:59:12.488Z,2.60
2018-08-25T21:01:40.668Z,2.47
2018-08-25T21:04:08.836Z,2.83
2018-08-25T21:06:36.995Z,2.70
2018-08-25T21:09:07.943Z,3.07
2018-08-25T21:11:36.096Z,2.90
2018-08-25T21:14:04.266Z,3.00
2018-08-25T21:16:32.463Z,3.00
2018-08-25T21:19:00.552Z,3.40
2018-08-25T21:21:28.713Z,3.37
2018-08-25T21:23:56.861Z,3.40
2018-08-25T21:26:25.048Z,3.07
2018-08-25T21:28:53.336Z,2.80
2018-08-25T21:31:21.605Z,4.00
2018-08-25T21:33:49.954Z,2.90
2018-08-25T21:36:18.173Z,3.07
2018-08-25T21:38:46.305Z,2.87
2018-08-25T21:41:14.517Z,2.80
2018-08-25T21:43:42.696Z,3.40
2018-08-25T21:46:10.868Z,2.67
2018-08-25T21:48:39.060Z,3.03
2018-08-25T21:51:07.267Z,2.53
2018-08-25T21:53:35.392Z,3.03
2018-08-25T21:56:03.532Z,2.70
2018-08-25T21:58:31.709Z,2.60
2018-08-25T22:00:59.902Z,2.63
2018-08-25T22:03:28.700Z,2.50
2018-08-25T22:05:57.579Z,2.75
2018-08-25T22:08:25.988Z,2.92
2018-08-25T22:10:54.544Z,3.40
2018-08-25T22:13:22.991Z,3.08
2018-08-25T22:15:51.211Z,2.77
2018-08-25T22:18:19.956Z,3.00
2018-08-25T22:20:48.115Z,3.30
2018-08-25T22:23:16.360Z,3.77
2018-08-25T22:25:44.485Z,3.50
2018-08-25T22:28:12.625Z,3.47
2018-08-25T22:30:40.800Z,2.80
2018-08-25T22:33:08.981Z,2.93
2018-08-25T22:35:37.127Z,2.83
2018-08-25T22:38:05.232Z,3.27
2018-08-25T22:40:33.374Z,3.17
2018-08-25T22:43:01.489Z,3.10
2018-08-25T22:45:29.616Z,2.90
2018-08-25T22:47:57.745Z,3.27
2018-08-25T22:50:25.903Z,2.80
2018-08-25T22:52:54.112Z,2.53
2018-08-25T22:55:23.326Z,3.20
2018-08-25T22:57:51.804Z,2.60
2018-08-25T23:00:20.496Z,2.30
2018-08-25T23:02:48.612Z,2.63
2018-08-25T23:05:16.740Z,2.73
2018-08-25T23:07:44.928Z,2.50
2018-08-25T23:10:13.086Z,2.63
2018-08-25T23:12:41.216Z,2.73
2018-08-25T23:15:09.372Z,2.97
2018-08-25T23:17:37.562Z,2.70
2018-08-25T23:20:05.725Z,2.17
2018-08-25T23:22:33.866Z,2.90
2018-08-25T23:25:02.000Z,2.70
2018-08-25T23:27:30.162Z,2.63
2018-08-25T23:29:58.287Z,2.70
2018-08-25T23:32:26.472Z,3.57
2018-08-25T23:34:54.657Z,2.80
2018-08-25T23:37:22.764Z,3.23
2018-08-25T23:39:50.956Z,3.20
2018-08-25T23:42:19.123Z,2.80
2018-08-25T23:44:47.255Z,2.73
2018-08-25T23:47:15.436Z,3.43
2018-08-25T23:49:43.656Z,3.00
2018-08-25T23:52:11.872Z,2.30
2018-08-25T23:54:40.117Z,3.00
2018-08-25T23:57:08.244Z,2.47
2018-08-25T23:59:36.380Z,2.27
